Time;durP1;ratioP1;P1;durP2;ratioP2;P2;SDS_P1;SDS_P2;PMS_P1;PMS_P2;Temp;Humidity;BMP_temperature;BMP_pressure;BME280_temperature;BME280_humidity;BME280_pressure;Samples;Min_cycle;Max_cycle;Signal;HPM_P1;HPM_P2
2023/05/07 05:03:07;;;;;;;5.60;3.92;;;13.30;99.90;;;;;;5147389;23;19923;-71
2023/05/07 05:05:33;;;;;;;5.75;3.97;;;13.30;99.90;;;;;;4905076;29;20322;-70
2023/05/07 05:08:00;;;;;;;5.95;3.67;;;13.30;99.90;;;;;;4909868;29;20095;-71
2023/05/07 05:10:26;;;;;;;4.22;3.15;;;13.40;99.90;;;;;;4909213;29;20024;-71
2023/05/07 05:12:52;;;;;;;5.95;3.55;;;13.40;99.90;;;;;;4902556;29;20032;-71
2023/05/07 05:15:19;;;;;;;5.70;3.83;;;13.50;99.90;;;;;;4907673;29;20059;-71
2023/05/07 05:17:45;;;;;;;6.10;3.80;;;13.50;99.90;;;;;;4891190;29;20040;-71
2023/05/07 05:20:12;;;;;;;6.45;3.67;;;13.50;99.90;;;;;;4913661;29;20210;-70
2023/05/07 05:22:39;;;;;;;11.23;4.35;;;13.60;99.90;;;;;;4908559;29;20030;-72
2023/05/07 05:25:05;;;;;;;8.18;4.95;;;13.70;99.90;;;;;;4909776;29;20066;-71
2023/05/07 05:27:31;;;;;;;8.35;4.55;;;13.80;99.90;;;;;;4909215;29;20028;-73
2023/05/07 05:29:57;;;;;;;6.35;4.20;;;13.80;99.90;;;;;;4909546;29;20040;-71
2023/05/07 05:32:23;;;;;;;9.98;4.60;;;13.90;99.90;;;;;;4910550;29;20035;-72
2023/05/07 05:34:52;;;;;;;5.03;3.97;;;14.00;99.90;;;;;;4917148;29;20028;-72
2023/05/07 05:37:18;;;;;;;6.25;4.47;;;14.00;99.90;;;;;;4892340;29;20067;-72
2023/05/07 05:39:44;;;;;;;5.75;3.40;;;14.20;99.90;;;;;;4890572;29;20033;-71
2023/05/07 05:42:10;;;;;;;5.35;3.72;;;14.30;99.90;;;;;;4890718;29;20354;-73
2023/05/07 05:44:36;;;;;;;6.63;3.70;;;14.40;99.90;;;;;;4890453;29;20047;-72
2023/05/07 05:47:03;;;;;;;8.13;4.38;;;14.50;99.90;;;;;;4907572;29;20056;-72
2023/05/07 05:49:29;;;;;;;6.22;4.22;;;14.60;99.90;;;;;;4890431;29;20373;-71
2023/05/07 05:51:55;;;;;;;6.18;4.60;;;14.70;99.90;;;;;;4890587;29;20036;-71
2023/05/07 05:54:23;;;;;;;7.43;4.05;;;14.70;99.90;;;;;;4890505;29;20039;-71
2023/05/07 05:56:49;;;;;;;7.00;3.80;;;14.80;99.90;;;;;;4875337;29;20037;-72
2023/05/07 05:59:15;;;;;;;7.57;5.32;;;14.90;99.90;;;;;;4909558;29;20032;-72
2023/05/07 06:01:41;;;;;;;8.93;4.18;;;14.90;99.90;;;;;;4925132;29;20380;-71
2023/05/07 06:04:07;;;;;;;6.07;3.80;;;15.00;99.90;;;;;;4918863;29;20044;-71
2023/05/07 06:06:33;;;;;;;7.82;4.57;;;15.00;99.90;;;;;;4890189;29;20028;-72
2023/05/07 06:09:00;;;;;;;5.57;4.00;;;15.10;99.90;;;;;;4897365;29;20213;-72
2023/05/07 06:11:34;;;;;;;7.53;4.18;;;15.30;99.90;;;;;;4899048;29;20060;-71
2023/05/07 06:13:59;;;;;;;6.10;4.03;;;15.40;99.90;;;;;;4894086;29;20060;-71
2023/05/07 06:16:26;;;;;;;7.00;4.75;;;15.60;99.90;;;;;;4893782;29;20046;-72
2023/05/07 06:18:53;;;;;;;6.03;4.25;;;15.70;99.90;;;;;;4928448;29;20024;-71
2023/05/07 06:21:18;;;;;;;7.25;3.47;;;15.80;99.90;;;;;;4929841;29;20333;-71
2023/05/07 06:23:44;;;;;;;7.15;4.90;;;15.90;99.90;;;;;;4912250;29;20058;-71
2023/05/07 06:26:10;;;;;;;6.80;4.35;;;15.80;99.90;;;;;;4913257;29;20039;-72
2023/05/07 06:28:40;;;;;;;6.88;4.38;;;15.80;99.90;;;;;;4912489;29;20075;-72
2023/05/07 06:31:17;;;;;;;5.20;3.97;;;15.80;99.90;;;;;;4912610;29;20310;-71
2023/05/07 06:34:05;;;;;;;8.40;4.30;;;15.80;99.90;;;;;;4913189;29;20455;-70
2023/05/07 06:36:35;;;;;;;9.25;4.30;;;15.80;99.90;;;;;;4912306;29;20043;-73
2023/05/07 06:39:07;;;;;;;6.68;4.53;;;15.70;99.90;;;;;;4906289;29;20032;-70
2023/05/07 06:41:32;;;;;;;7.35;4.78;;;15.60;99.90;;;;;;4894641;29;20036;-70
2023/05/07 06:44:05;;;;;;;6.22;4.20;;;15.70;99.90;;;;;;4902359;29;20043;-71
2023/05/07 06:46:37;;;;;;;6.60;4.80;;;15.80;99.90;;;;;;4913688;29;20028;-70
2023/05/07 06:49:04;;;;;;;7.57;4.53;;;15.80;99.90;;;;;;4930497;29;20031;-70
2023/05/07 06:51:30;;;;;;;8.82;4.60;;;15.90;99.90;;;;;;4912329;29;20035;-71
2023/05/07 06:54:00;;;;;;;7.70;4.57;;;16.00;99.90;;;;;;4912523;29;20209;-71
2023/05/07 06:56:26;;;;;;;7.70;5.15;;;16.20;99.90;;;;;;4930245;29;20099;-71
2023/05/07 06:58:52;;;;;;;6.38;4.57;;;16.40;99.90;;;;;;4912541;29;20092;-72
2023/05/07 07:01:18;;;;;;;5.95;3.80;;;16.60;99.90;;;;;;4892873;29;20024;-71
2023/05/07 07:03:44;;;;;;;7.03;4.53;;;16.80;99.90;;;;;;4911478;29;20080;-72
2023/05/07 07:06:09;;;;;;;5.45;4.55;;;17.10;99.90;;;;;;4893173;29;20044;-74
2023/05/07 07:08:38;;;;;;;7.22;4.18;;;17.30;99.90;;;;;;4892680;29;20313;-73
2023/05/07 07:11:05;;;;;;;6.00;4.40;;;17.40;99.90;;;;;;4900807;29;20036;-70
2023/05/07 07:13:31;;;;;;;7.93;4.68;;;17.70;99.90;;;;;;4892814;29;20071;-72
2023/05/07 07:15:57;;;;;;;6.15;4.07;;;17.90;99.90;;;;;;4893048;29;20036;-71
2023/05/07 07:18:23;;;;;;;7.47;4.55;;;18.10;99.90;;;;;;4892881;29;20024;-73
2023/05/07 07:20:50;;;;;;;7.93;4.57;;;18.30;99.90;;;;;;4892086;29;20056;-72
2023/05/07 07:23:16;;;;;;;8.18;4.07;;;18.50;99.90;;;;;;4892803;29;20254;-72
2023/05/07 07:25:41;;;;;;;6.47;3.40;;;18.70;99.90;;;;;;4909299;29;20028;-71
2023/05/07 07:28:07;;;;;;;6.22;3.92;;;18.90;99.90;;;;;;4909336;29;20033;-72
2023/05/07 07:30:34;;;;;;;6.60;3.38;;;19.10;99.90;;;;;;4892419;29;20020;-73
2023/05/07 07:33:03;;;;;;;6.63;3.30;;;19.40;99.50;;;;;;4909291;29;20096;-72
2023/05/07 07:35:32;;;;;;;4.75;3.20;;;19.70;98.60;;;;;;4877039;29;20041;-73
2023/05/07 07:37:58;;;;;;;6.25;3.55;;;19.80;97.60;;;;;;4899824;29;20032;-73
2023/05/07 07:40:24;;;;;;;4.35;2.60;;;20.10;96.50;;;;;;4911537;29;20032;-73
2023/05/07 07:42:51;;;;;;;5.53;3.10;;;20.20;96.50;;;;;;4892246;29;20031;-80
2023/05/07 07:45:17;;;;;;;7.25;3.13;;;20.60;95.80;;;;;;4892602;29;20087;-74
2023/05/07 07:47:46;;;;;;;3.90;2.40;;;20.70;95.00;;;;;;4892151;29;20028;-75
2023/05/07 07:50:12;;;;;;;4.50;2.22;;;21.00;94.60;;;;;;4892145;29;20048;-73
2023/05/07 07:52:38;;;;;;;4.47;2.22;;;21.50;93.80;;;;;;4891861;29;20298;-73
2023/05/07 07:55:06;;;;;;;4.45;2.10;;;21.90;93.10;;;;;;4892367;29;20233;-75
2023/05/07 07:57:33;;;;;;;3.92;2.10;;;22.00;92.40;;;;;;4897419;29;20028;-73
2023/05/07 07:59:59;;;;;;;6.28;2.00;;;22.30;92.20;;;;;;4910903;29;20039;-74
2023/05/07 08:02:25;;;;;;;5.07;2.38;;;22.30;91.70;;;;;;4910541;29;20330;-75
2023/05/07 08:04:51;;;;;;;4.45;1.65;;;22.30;91.50;;;;;;4910449;29;20040;-76
2023/05/07 08:07:20;;;;;;;3.55;1.75;;;22.50;90.80;;;;;;4910652;29;20072;-73
2023/05/07 08:09:47;;;;;;;4.32;2.30;;;22.40;90.70;;;;;;4910292;29;20067;-72
2023/05/07 08:12:14;;;;;;;4.07;1.80;;;22.50;90.70;;;;;;4891947;29;20043;-72
2023/05/07 08:14:41;;;;;;;5.03;1.80;;;22.50;90.70;;;;;;4891731;29;20028;-73
2023/05/07 08:17:09;;;;;;;4.90;1.83;;;22.60;90.20;;;;;;4891956;29;20032;-75
2023/05/07 08:19:35;;;;;;;2.90;1.63;;;22.50;90.30;;;;;;4908034;29;20037;-76
2023/05/07 08:22:04;;;;;;;3.25;1.73;;;22.60;90.40;;;;;;4891701;29;20033;-71
2023/05/07 08:24:30;;;;;;;4.57;2.15;;;22.40;90.00;;;;;;4891850;29;20087;-71
2023/05/07 08:26:57;;;;;;;2.75;1.90;;;22.30;90.10;;;;;;4908077;29;20056;-75
2023/05/07 08:29:23;;;;;;;5.00;2.03;;;22.30;90.00;;;;;;4891463;29;20041;-70
2023/05/07 08:31:49;;;;;;;3.40;1.80;;;22.30;90.00;;;;;;4906934;29;20041;-72
2023/05/07 08:34:15;;;;;;;3.08;1.70;;;22.50;90.20;;;;;;4891715;29;20099;-73
2023/05/07 08:36:44;;;;;;;3.58;1.88;;;22.70;90.00;;;;;;4913454;29;20047;-72
2023/05/07 08:39:12;;;;;;;3.35;1.83;;;22.70;89.40;;;;;;4903638;29;20071;-74
2023/05/07 08:41:38;;;;;;;4.65;1.95;;;22.60;89.50;;;;;;4920088;29;20099;-73
2023/05/07 08:44:11;;;;;;;3.22;1.77;;;22.40;90.10;;;;;;4909185;29;20084;-72
2023/05/07 08:46:37;;;;;;;5.75;2.08;;;22.40;90.30;;;;;;4894080;29;20052;-73
2023/05/07 08:49:03;;;;;;;5.40;1.90;;;22.20;90.40;;;;;;4908162;29;20329;-71
2023/05/07 08:51:28;;;;;;;6.68;1.95;;;22.20;90.60;;;;;;4891473;29;20043;-73
2023/05/07 08:53:54;;;;;;;4.35;2.17;;;22.20;90.80;;;;;;4900764;29;20214;-74
2023/05/07 08:56:28;;;;;;;4.85;1.73;;;22.40;90.50;;;;;;4878631;29;20029;-70
2023/05/07 08:58:58;;;;;;;3.67;2.03;;;22.50;90.50;;;;;;4901838;29;20041;-72
2023/05/07 09:01:26;;;;;;;3.60;1.70;;;22.70;90.20;;;;;;4875562;29;20044;-72
2023/05/07 09:03:53;;;;;;;4.53;1.80;;;22.90;89.70;;;;;;4890555;29;20255;-71
2023/05/07 09:06:20;;;;;;;4.05;1.88;;;23.10;89.80;;;;;;4891162;29;20326;-73
2023/05/07 09:08:53;;;;;;;4.07;2.05;;;23.10;89.10;;;;;;4891747;29;20029;-73
2023/05/07 09:11:22;;;;;;;4.70;1.90;;;23.30;89.20;;;;;;4908670;29;20111;-73
2023/05/07 09:13:52;;;;;;;4.72;1.73;;;23.40;88.90;;;;;;4890742;29;20057;-74
2023/05/07 09:16:21;;;;;;;3.47;1.50;;;23.50;88.30;;;;;;4907614;29;20155;-73
2023/05/07 09:18:50;;;;;;;3.00;1.58;;;23.60;87.50;;;;;;4892684;29;20028;-72
2023/05/07 09:21:17;;;;;;;3.42;1.60;;;23.70;87.60;;;;;;4908033;29;20036;-71
2023/05/07 09:23:44;;;;;;;4.53;1.83;;;23.70;87.60;;;;;;4891314;29;20348;-75
2023/05/07 09:26:13;;;;;;;4.22;1.80;;;23.70;87.00;;;;;;4891138;29;20112;-74
2023/05/07 09:28:42;;;;;;;3.22;1.63;;;23.80;86.50;;;;;;4890330;29;20024;-73
2023/05/07 09:31:10;;;;;;;;;;;23.80;86.00;;;;;;4891317;29;20308;-71
2023/05/07 09:33:35;;;;;;;3.28;1.60;;;23.80;86.20;;;;;;4890635;29;20012;-73
2023/05/07 09:36:08;;;;;;;2.40;1.27;;;24.00;86.20;;;;;;4900930;29;20310;-72
2023/05/07 09:38:36;;;;;;;4.40;1.75;;;23.90;84.70;;;;;;4895129;29;20079;-73
2023/05/07 09:41:03;;;;;;;4.63;2.40;;;23.90;85.70;;;;;;4890979;29;20040;-72
2023/05/07 09:43:35;;;;;;;2.90;1.40;;;23.90;85.30;;;;;;4892447;29;20047;-73
2023/05/07 09:46:16;;;;;;;3.03;1.35;;;23.90;84.40;;;;;;4894623;29;20047;-72
2023/05/07 09:48:48;;;;;;;3.28;1.50;;;23.80;84.30;;;;;;4894282;29;20036;-75
2023/05/07 09:51:36;;;;;;;4.70;1.55;;;23.80;84.70;;;;;;4894420;29;20044;-71
2023/05/07 09:54:04;;;;;;;4.32;1.70;;;24.00;85.00;;;;;;4894209;29;20040;-73
2023/05/07 09:56:34;;;;;;;2.70;1.20;;;24.20;84.80;;;;;;4899406;29;20020;-72
2023/05/07 09:59:00;;;;;;;2.22;1.10;;;24.40;84.10;;;;;;4900959;29;20028;-75
2023/05/07 10:01:31;;;;;;;2.30;1.15;;;24.60;84.50;;;;;;4893909;29;20300;-71
2023/05/07 10:03:58;;;;;;;2.63;1.38;;;24.80;82.60;;;;;;4893962;29;20219;-72
2023/05/07 10:06:28;;;;;;;1.95;1.08;;;25.00;82.10;;;;;;4894488;29;20220;-73
2023/05/07 10:08:55;;;;;;;2.72;1.33;;;25.30;82.00;;;;;;4910343;29;20048;-74
2023/05/07 10:11:22;;;;;;;4.37;1.50;;;25.40;81.30;;;;;;4895097;29;20059;-74
2023/05/07 10:13:48;;;;;;;2.97;1.52;;;25.60;80.40;;;;;;4910678;29;20192;-73
2023/05/07 10:16:14;;;;;;;3.33;1.20;;;25.70;80.00;;;;;;4894334;29;20064;-73
2023/05/07 10:18:45;;;;;;;4.13;1.33;;;25.80;79.20;;;;;;4893480;29;20069;-72
2023/05/07 10:21:18;;;;;;;4.20;1.10;;;26.00;78.50;;;;;;4894266;29;20032;-72
2023/05/07 10:23:48;;;;;;;4.25;1.20;;;26.30;79.00;;;;;;4893570;29;20036;-74
2023/05/07 10:26:16;;;;;;;3.55;1.35;;;26.40;77.50;;;;;;4893965;29;20037;-74
2023/05/07 10:28:46;;;;;;;3.90;1.42;;;26.30;76.90;;;;;;4910038;29;20032;-74
2023/05/07 10:31:16;;;;;;;2.80;1.35;;;26.60;77.40;;;;;;4893975;29;20129;-72
2023/05/07 10:33:48;;;;;;;3.20;1.20;;;26.80;76.20;;;;;;4898058;29;20024;-72
2023/05/07 10:36:15;;;;;;;2.42;1.25;;;27.00;75.30;;;;;;4907069;29;20097;-72
2023/05/07 10:38:41;;;;;;;1.98;1.35;;;27.00;74.60;;;;;;4894418;29;20314;-74
2023/05/07 10:41:07;;;;;;;2.63;1.17;;;27.20;73.60;;;;;;4893632;29;20099;-73
2023/05/07 10:43:44;;;;;;;3.25;1.38;;;27.50;73.00;;;;;;4893625;29;20036;-72
2023/05/07 10:46:19;;;;;;;3.13;1.05;;;28.00;72.20;;;;;;4899995;29;20372;-73
2023/05/07 10:49:00;;;;;;;2.47;1.48;;;28.50;71.90;;;;;;4912013;29;20032;-73
2023/05/07 10:51:30;;;;;;;3.53;1.00;;;28.70;70.00;;;;;;4912368;29;20031;-72
2023/05/07 10:54:21;;;;;;;2.83;1.13;;;28.40;69.90;;;;;;4927731;29;20048;-73
2023/05/07 10:56:55;;;;;;;2.05;1.17;;;28.30;69.90;;;;;;4911779;29;20032;-74
2023/05/07 10:59:33;;;;;;;3.28;1.05;;;28.00;68.60;;;;;;4911938;29;20047;-73
2023/05/07 11:02:13;;;;;;;2.25;0.82;;;27.80;68.60;;;;;;4911727;29;20086;-74
2023/05/07 11:05:18;;;;;;;3.30;1.10;;;27.50;68.20;;;;;;4911437;29;20080;-75
2023/05/07 11:07:57;;;;;;;4.90;1.10;;;27.30;70.10;;;;;;4911677;29;20040;-75
2023/05/07 11:10:53;;;;;;;2.38;0.98;;;27.90;69.90;;;;;;4910692;29;20028;-73
2023/05/07 11:13:42;;;;;;;2.17;1.13;;;28.90;68.30;;;;;;4892892;29;20222;-74
2023/05/07 11:16:20;;;;;;;2.85;1.02;;;29.30;67.30;;;;;;4893257;29;20025;-73
2023/05/07 11:18:55;;;;;;;3.67;0.85;;;29.90;66.40;;;;;;4892587;29;20315;-74
2023/05/07 11:21:38;;;;;;;3.65;0.98;;;30.40;64.30;;;;;;4893153;29;20043;-75
2023/05/07 11:24:27;;;;;;;1.92;0.90;;;30.90;62.90;;;;;;4906726;29;20045;-72
2023/05/07 11:27:00;;;;;;;3.40;1.05;;;30.90;63.80;;;;;;4892300;29;20055;-72
2023/05/07 11:29:28;;;;;;;3.08;1.10;;;30.60;65.20;;;;;;4909299;29;20314;-72
2023/05/07 11:32:00;;;;;;;2.20;1.10;;;30.30;66.20;;;;;;4877518;29;20033;-73
2023/05/07 11:34:30;;;;;;;2.70;1.30;;;29.90;66.50;;;;;;4901007;29;20037;-73
2023/05/07 11:36:58;;;;;;;2.78;1.02;;;29.40;67.20;;;;;;4911050;29;20035;-74
2023/05/07 11:39:37;;;;;;;2.85;1.30;;;28.90;67.70;;;;;;4900193;29;20031;-74
2023/05/07 11:42:03;;;;;;;3.55;1.20;;;28.50;68.70;;;;;;4908778;29;20068;-72
2023/05/07 11:44:43;;;;;;;1.98;1.00;;;28.20;69.10;;;;;;4909591;29;20040;-72
2023/05/07 11:47:09;;;;;;;2.50;1.08;;;27.70;70.10;;;;;;4909374;29;20044;-73
2023/05/07 11:49:35;;;;;;;2.42;1.20;;;27.40;70.30;;;;;;4876779;29;20040;-73
2023/05/07 11:52:01;;;;;;;2.70;1.10;;;27.20;71.20;;;;;;4908508;29;20095;-73
2023/05/07 11:54:35;;;;;;;3.28;1.15;;;26.90;70.50;;;;;;4876886;29;20338;-74
2023/05/07 11:57:01;;;;;;;3.85;1.30;;;26.40;71.40;;;;;;4908541;29;20060;-73
2023/05/07 11:59:27;;;;;;;4.28;1.33;;;26.10;71.60;;;;;;4908893;29;20035;-76
2023/05/07 12:01:56;;;;;;;3.05;1.30;;;25.70;72.40;;;;;;4908983;29;20068;-72
2023/05/07 12:04:22;;;;;;;3.17;1.27;;;25.50;72.80;;;;;;4892503;29;20041;-73
2023/05/07 12:06:47;;;;;;;2.00;0.98;;;25.10;73.50;;;;;;4908461;29;20116;-73
2023/05/07 12:09:13;;;;;;;2.60;1.10;;;24.90;74.00;;;;;;4910895;29;20021;-74
2023/05/07 12:11:39;;;;;;;2.47;1.58;;;24.70;75.40;;;;;;4897679;29;20036;-72
2023/05/07 12:14:05;;;;;;;3.10;1.20;;;24.50;76.40;;;;;;4908121;29;20080;-73
2023/05/07 12:16:31;;;;;;;3.08;1.30;;;24.30;77.00;;;;;;4908535;29;20037;-72
2023/05/07 12:18:58;;;;;;;2.17;1.48;;;24.10;78.90;;;;;;4908223;29;20052;-72
2023/05/07 12:21:25;;;;;;;4.18;1.52;;;23.90;80.50;;;;;;4908627;29;20060;-73
2023/05/07 12:23:50;;;;;;;3.80;1.95;;;23.80;82.20;;;;;;4907764;29;20092;-72
2023/05/07 12:26:16;;;;;;;5.25;2.50;;;23.50;83.20;;;;;;4908165;29;20044;-72
2023/05/07 12:28:42;;;;;;;7.07;2.08;;;23.30;87.40;;;;;;4908447;29;20028;-73
2023/05/07 12:31:08;;;;;;;5.35;2.10;;;22.90;90.30;;;;;;4907702;29;20050;-72
2023/05/07 12:33:35;;;;;;;5.45;2.30;;;22.60;92.90;;;;;;4908242;29;20040;-74
2023/05/07 12:36:05;;;;;;;5.00;2.60;;;22.20;93.00;;;;;;4908207;29;20112;-73
2023/05/07 12:38:36;;;;;;;6.72;2.13;;;21.70;95.30;;;;;;4917478;29;20036;-72
2023/05/07 12:41:02;;;;;;;5.47;2.15;;;20.80;99.00;;;;;;4908007;29;20036;-72
2023/05/07 12:43:28;;;;;;;5.10;2.17;;;19.60;99.90;;;;;;4908140;29;20222;-73
2023/05/07 12:45:57;;;;;;;4.95;2.30;;;19.00;99.90;;;;;;4907737;29;20055;-72
2023/05/07 12:48:23;;;;;;;6.53;3.13;;;18.60;99.90;;;;;;4926110;29;20032;-73
2023/05/07 12:50:54;;;;;;;7.80;3.10;;;18.30;99.90;;;;;;4907890;29;20039;-73
2023/05/07 12:53:25;;;;;;;7.60;3.50;;;17.50;99.90;;;;;;4908310;29;20194;-75
2023/05/07 12:55:53;;;;;;;11.63;4.20;;;17.00;99.90;;;;;;4907535;29;20040;-76
2023/05/07 12:58:27;;;;;;;6.35;3.70;;;16.20;99.90;;;;;;4907902;29;20221;-74
2023/05/07 13:00:53;;;;;;;8.18;3.10;;;15.70;99.90;;;;;;4907163;29;20066;-73
2023/05/07 13:03:24;;;;;;;6.03;2.22;;;15.50;99.90;;;;;;4907453;29;20072;-74
2023/05/07 13:05:51;;;;;;;4.43;2.28;;;15.00;99.90;;;;;;4907166;29;20345;-73
2023/05/07 13:08:34;;;;;;;4.55;1.80;;;14.70;99.90;;;;;;4907667;29;20037;-74
2023/05/07 13:11:04;;;;;;;6.50;1.73;;;14.70;99.90;;;;;;4898024;29;20107;-72
2023/05/07 13:13:35;;;;;;;4.53;1.40;;;14.40;99.90;;;;;;4907697;29;20032;-72
2023/05/07 13:16:02;;;;;;;3.10;1.40;;;14.30;99.90;;;;;;4907281;29;20028;-70
2023/05/07 13:18:30;;;;;;;5.40;2.33;;;14.30;99.90;;;;;;4890344;29;20056;-71
2023/05/07 13:20:56;;;;;;;5.88;2.75;;;14.30;99.90;;;;;;4890216;29;20033;-72
2023/05/07 13:23:21;;;;;;;7.72;3.45;;;14.20;99.90;;;;;;4907332;29;20037;-73
2023/05/07 13:25:48;;;;;;;5.30;2.72;;;14.10;99.90;;;;;;4907424;29;20052;-72
2023/05/07 13:28:16;;;;;;;3.65;2.25;;;14.10;99.90;;;;;;4875586;29;20200;-72
2023/05/07 13:30:42;;;;;;;6.43;2.72;;;14.00;99.90;;;;;;4907527;29;20039;-72
2023/05/07 13:33:08;;;;;;;8.25;3.08;;;14.00;99.90;;;;;;4907104;29;20045;-73
2023/05/07 13:35:34;;;;;;;7.53;3.42;;;14.10;99.90;;;;;;4907578;29;20088;-73
2023/05/07 13:37:59;;;;;;;10.48;4.45;;;14.20;99.90;;;;;;4914105;29;20229;-73
2023/05/07 13:40:25;;;;;;;8.88;4.10;;;14.30;99.90;;;;;;4892096;29;20040;-74
2023/05/07 13:42:51;;;;;;;6.63;3.33;;;14.50;99.90;;;;;;4906917;29;20107;-73
2023/05/07 13:45:20;;;;;;;6.88;3.40;;;14.60;99.90;;;;;;4907037;29;20032;-72
2023/05/07 13:47:46;;;;;;;6.18;2.50;;;14.70;99.90;;;;;;4906964;29;20073;-74
2023/05/07 13:50:15;;;;;;;4.88;2.50;;;14.60;99.90;;;;;;4906295;29;20055;-73
2023/05/07 13:52:50;;;;;;;6.97;2.25;;;14.50;99.90;;;;;;4907239;29;20269;-75
2023/05/07 13:55:22;;;;;;;4.65;1.98;;;14.40;99.90;;;;;;4907164;29;20037;-74
2023/05/07 13:57:58;;;;;;;5.20;1.90;;;14.30;99.90;;;;;;4907372;29;20041;-75
2023/05/07 14:00:25;;;;;;;4.45;2.58;;;14.40;99.90;;;;;;4907156;29;20040;-74
2023/05/07 14:02:51;;;;;;;6.85;3.70;;;14.70;99.90;;;;;;4907188;29;20238;-75
2023/05/07 14:05:16;;;;;;;5.22;2.70;;;14.70;99.90;;;;;;4907241;29;20100;-73
2023/05/07 14:07:42;;;;;;;6.07;2.08;;;14.70;99.90;;;;;;4907389;29;20033;-72
2023/05/07 14:10:09;;;;;;;3.70;1.80;;;14.80;99.90;;;;;;4897523;29;20033;-72
2023/05/07 14:12:35;;;;;;;3.60;1.42;;;14.70;99.90;;;;;;4907215;29;20032;-71
2023/05/07 14:15:01;;;;;;;3.03;1.70;;;14.60;99.90;;;;;;4906635;29;20040;-74
2023/05/07 14:17:26;;;;;;;3.97;1.60;;;14.70;99.90;;;;;;4907365;29;20141;-73
2023/05/07 14:19:54;;;;;;;2.97;1.80;;;14.60;99.90;;;;;;4906906;29;20252;-73
2023/05/07 14:22:21;;;;;;;5.10;2.30;;;14.70;99.90;;;;;;4912903;29;20322;-71
2023/05/07 14:24:47;;;;;;;4.55;2.10;;;14.70;99.90;;;;;;4925942;29;20036;-73
2023/05/07 14:27:12;;;;;;;6.40;1.98;;;14.80;99.90;;;;;;4925353;29;20054;-72
2023/05/07 14:29:38;;;;;;;3.45;2.05;;;14.70;99.90;;;;;;4926038;29;20059;-72
2023/05/07 14:32:04;;;;;;;3.97;1.92;;;14.70;99.90;;;;;;4928820;29;20068;-73
2023/05/07 14:34:31;;;;;;;4.63;2.20;;;14.70;99.90;;;;;;4918687;29;20056;-73
2023/05/07 14:36:57;;;;;;;4.53;1.65;;;14.70;99.90;;;;;;4909726;29;20134;-73
2023/05/07 14:39:23;;;;;;;3.10;1.73;;;14.70;99.90;;;;;;4920306;29;20084;-73
2023/05/07 14:41:49;;;;;;;2.35;1.52;;;14.60;99.90;;;;;;4910477;29;20029;-74
2023/05/07 14:44:15;;;;;;;3.10;1.70;;;14.80;99.90;;;;;;4909521;29;20029;-73
2023/05/07 14:46:40;;;;;;;4.30;2.08;;;14.80;99.90;;;;;;4910683;29;20255;-73
2023/05/07 14:49:06;;;;;;;3.88;2.40;;;14.90;99.90;;;;;;4909691;29;20048;-71
2023/05/07 14:51:32;;;;;;;4.75;2.95;;;15.10;99.90;;;;;;4910232;29;20092;-73
2023/05/07 14:53:58;;;;;;;8.10;4.25;;;15.30;99.90;;;;;;4893084;29;20032;-73
2023/05/07 14:56:24;;;;;;;7.05;4.53;;;15.40;99.90;;;;;;4910237;29;20036;-72
2023/05/07 14:58:50;;;;;;;7.25;4.43;;;15.50;99.90;;;;;;4910342;29;20024;-73
2023/05/07 15:01:16;;;;;;;8.95;4.47;;;15.60;99.90;;;;;;4909716;29;20103;-72
2023/05/07 15:03:41;;;;;;;7.47;4.13;;;15.60;99.90;;;;;;4910004;29;20362;-72
2023/05/07 15:06:07;;;;;;;7.30;4.32;;;15.80;99.90;;;;;;4909087;29;20028;-73
2023/05/07 15:08:33;;;;;;;7.90;4.72;;;16.00;99.90;;;;;;4928330;29;20040;-73
2023/05/07 15:10:59;;;;;;;8.32;3.97;;;16.00;99.90;;;;;;4921380;29;20024;-73
2023/05/07 15:13:24;;;;;;;6.05;3.45;;;16.00;99.90;;;;;;4920705;29;20062;-74
2023/05/07 15:15:50;;;;;;;4.57;2.88;;;16.00;99.90;;;;;;4930534;29;20076;-73
2023/05/07 15:18:16;;;;;;;6.53;2.80;;;16.00;99.90;;;;;;4916855;29;20120;-75
2023/05/07 15:20:42;;;;;;;9.05;4.38;;;16.00;99.90;;;;;;4915870;29;20028;-74
2023/05/07 15:23:13;;;;;;;5.50;3.40;;;16.20;99.90;;;;;;4927456;29;20266;-74
2023/05/07 15:25:41;;;;;;;9.60;5.65;;;16.20;99.90;;;;;;4892940;29;20056;-74
2023/05/07 15:28:07;;;;;;;7.90;5.63;;;16.10;99.90;;;;;;4892447;29;20054;-74
2023/05/07 15:30:33;;;;;;;7.57;4.60;;;16.10;99.90;;;;;;4916423;29;20067;-74
2023/05/07 15:33:00;;;;;;;7.88;4.15;;;16.30;99.90;;;;;;4911564;29;20041;-72
2023/05/07 15:35:26;;;;;;;6.53;4.05;;;16.40;99.90;;;;;;4909579;29;20020;-73
2023/05/07 15:37:55;;;;;;;7.18;3.75;;;16.50;99.90;;;;;;4912164;29;20094;-74
2023/05/07 15:40:21;;;;;;;6.10;3.22;;;16.50;99.90;;;;;;4909664;29;20049;-74
2023/05/07 15:42:47;;;;;;;5.07;3.38;;;16.40;99.90;;;;;;4912212;29;20214;-74
2023/05/07 15:45:13;;;;;;;4.80;2.80;;;16.50;99.90;;;;;;4892166;29;20040;-75
2023/05/07 15:47:38;;;;;;;7.70;3.20;;;16.40;99.90;;;;;;4914478;29;20210;-74
2023/05/07 15:50:05;;;;;;;5.35;2.85;;;16.30;99.90;;;;;;4908539;29;20024;-74
2023/05/07 15:52:30;;;;;;;5.63;3.20;;;16.30;99.90;;;;;;4908792;29;20036;-75
2023/05/07 15:54:56;;;;;;;4.35;2.80;;;16.40;99.90;;;;;;4908790;29;20088;-75
2023/05/07 15:57:23;;;;;;;5.90;3.08;;;16.50;99.90;;;;;;4908825;29;20029;-76
2023/05/07 15:59:50;;;;;;;4.18;2.92;;;16.60;99.90;;;;;;4909101;29;20032;-75
2023/05/07 16:02:16;;;;;;;6.90;3.83;;;16.60;99.90;;;;;;4908296;29;20079;-75
2023/05/07 16:04:41;;;;;;;5.65;3.35;;;16.60;99.90;;;;;;4909512;29;20040;-74
2023/05/07 16:07:07;;;;;;;6.25;4.10;;;16.60;99.90;;;;;;4908341;29;20230;-74
2023/05/07 16:09:33;;;;;;;5.47;3.30;;;16.60;99.90;;;;;;4913493;29;20020;-75
2023/05/07 16:11:59;;;;;;;5.80;3.22;;;16.60;99.90;;;;;;4916644;29;20029;-78
2023/05/07 16:14:25;;;;;;;5.97;3.30;;;16.60;99.90;;;;;;4910425;29;20080;-74
2023/05/07 16:16:51;;;;;;;5.85;3.20;;;16.50;99.90;;;;;;4908560;29;20040;-73
2023/05/07 16:19:17;;;;;;;4.32;3.45;;;16.40;99.90;;;;;;4891483;29;20027;-75
2023/05/07 16:21:42;;;;;;;5.47;3.20;;;16.40;99.90;;;;;;4915324;29;20064;-74
2023/05/07 16:24:08;;;;;;;5.43;3.97;;;16.40;99.90;;;;;;4911713;29;20047;-74
2023/05/07 16:26:34;;;;;;;5.60;3.53;;;16.50;99.90;;;;;;4909164;29;20053;-75
2023/05/07 16:29:00;;;;;;;6.07;3.70;;;16.40;99.90;;;;;;4891615;29;20024;-75
2023/05/07 16:31:26;;;;;;;8.23;3.60;;;16.50;99.90;;;;;;4891928;29;20044;-75
2023/05/07 16:33:52;;;;;;;7.28;4.50;;;16.50;99.90;;;;;;4926445;29;20031;-72
2023/05/07 16:36:18;;;;;;;8.07;4.13;;;16.60;99.90;;;;;;4926568;29;20035;-76
2023/05/07 16:38:44;;;;;;;6.65;3.92;;;16.60;99.90;;;;;;4897657;29;20056;-72
2023/05/07 16:41:10;;;;;;;6.50;3.63;;;16.60;99.90;;;;;;4907549;29;20043;-72
2023/05/07 16:43:35;;;;;;;8.32;4.20;;;16.70;99.90;;;;;;4908300;29;20324;-72
2023/05/07 16:46:01;;;;;;;6.95;4.80;;;16.70;99.90;;;;;;4907531;29;20072;-74
2023/05/07 16:48:27;;;;;;;6.90;4.70;;;16.60;99.90;;;;;;4917791;29;20242;-71
2023/05/07 16:50:53;;;;;;;7.07;4.05;;;16.70;99.90;;;;;;4909406;29;20126;-70
2023/05/07 16:53:19;;;;;;;7.53;3.95;;;16.80;99.90;;;;;;4907149;29;20035;-72
2023/05/07 16:55:45;;;;;;;6.68;3.53;;;16.70;99.90;;;;;;4908240;29;20318;-72
2023/05/07 16:58:11;;;;;;;9.20;4.22;;;16.70;99.90;;;;;;4890964;29;20035;-71
2023/05/07 17:00:38;;;;;;;5.28;3.85;;;16.80;99.90;;;;;;4875571;29;20056;-71
2023/05/07 17:03:03;;;;;;;9.00;4.35;;;16.90;99.90;;;;;;4907056;29;20064;-71
2023/05/07 17:05:30;;;;;;;7.55;4.93;;;16.90;99.90;;;;;;4907740;29;20091;-70
2023/05/07 17:07:56;;;;;;;8.80;5.20;;;17.00;99.90;;;;;;4907949;29;20112;-70
2023/05/07 17:10:24;;;;;;;6.90;4.50;;;17.20;99.90;;;;;;4924272;29;20040;-71
2023/05/07 17:12:50;;;;;;;7.00;4.47;;;17.10;99.90;;;;;;4918772;29;20036;-71
2023/05/07 17:15:16;;;;;;;6.90;4.55;;;17.10;99.90;;;;;;4907362;29;20073;-71
2023/05/07 17:17:42;;;;;;;5.15;3.45;;;17.10;99.90;;;;;;4907830;29;20044;-70
2023/05/07 17:20:08;;;;;;;6.57;3.50;;;17.10;99.90;;;;;;4907432;29;20084;-70
2023/05/07 17:22:34;;;;;;;8.55;4.57;;;17.00;99.90;;;;;;4898200;29;20132;-69
2023/05/07 17:25:02;;;;;;;7.32;4.25;;;16.90;99.90;;;;;;4907842;29;20055;-69
2023/05/07 17:27:28;;;;;;;6.22;3.65;;;16.90;99.90;;;;;;4907701;29;20044;-70
2023/05/07 17:29:54;;;;;;;7.45;3.83;;;16.90;99.90;;;;;;4907522;29;20092;-70
2023/05/07 17:32:19;;;;;;;5.57;3.63;;;16.90;99.90;;;;;;4913596;29;20036;-70
2023/05/07 17:34:45;;;;;;;6.07;3.53;;;17.00;99.90;;;;;;4926403;29;20046;-70
2023/05/07 17:37:11;;;;;;;5.13;3.58;;;16.90;99.90;;;;;;4925839;29;20274;-69
2023/05/07 17:39:36;;;;;;;5.63;4.05;;;16.70;99.90;;;;;;4926284;29;20024;-70
2023/05/07 17:42:02;;;;;;;4.90;3.42;;;16.80;99.90;;;;;;4926207;29;20036;-70
2023/05/07 17:44:28;;;;;;;6.60;4.03;;;16.70;99.90;;;;;;4925699;29;20083;-71
2023/05/07 17:46:54;;;;;;;6.75;4.00;;;16.60;99.90;;;;;;4926103;29;20214;-71
2023/05/07 17:49:19;;;;;;;7.82;3.90;;;16.50;99.90;;;;;;4918974;29;20092;-69
2023/05/07 17:51:45;;;;;;;7.32;4.45;;;16.40;99.90;;;;;;4907568;29;20211;-71
2023/05/07 17:54:11;;;;;;;6.47;4.93;;;16.40;99.90;;;;;;4907014;29;20028;-70